createdAt,value
2023-02-03T00:02:08.061Z,2.90
2023-02-03T00:04:34.888Z,2.90
2023-02-03T00:07:01.737Z,2.80
2023-02-03T00:09:28.636Z,2.60
2023-02-03T00:11:55.502Z,3.10
2023-02-03T00:14:22.291Z,2.90
2023-02-03T00:19:17.511Z,2.78
2023-02-03T00:21:44.901Z,2.80
2023-02-03T00:26:42.620Z,2.40
2023-02-03T00:29:09.372Z,2.47
2023-02-03T00:31:36.536Z,2.40
2023-02-03T00:34:03.530Z,2.50
2023-02-03T00:36:30.321Z,2.50
2023-02-03T00:41:43.775Z,2.78
2023-02-03T00:46:57.381Z,2.85
2023-02-03T00:49:24.146Z,3.40
2023-02-03T00:51:51.510Z,3.55
2023-02-03T00:54:18.462Z,2.90
2023-02-03T00:56:45.275Z,3.20
2023-02-03T00:59:12.368Z,3.40
2023-02-03T01:01:39.130Z,3.60
2023-02-03T01:04:06.238Z,3.80
2023-02-03T01:06:33.042Z,3.90
2023-02-03T01:09:02.336Z,3.60
2023-02-03T01:11:29.580Z,4.00
2023-02-03T01:13:57.457Z,4.10
2023-02-03T01:16:25.988Z,4.68
2023-02-03T01:18:55.255Z,4.55
2023-02-03T01:21:26.382Z,4.43
2023-02-03T01:23:54.292Z,4.78
2023-02-03T01:29:09.918Z,4.85
2023-02-03T01:34:26.017Z,4.60
2023-02-03T01:36:52.792Z,4.40
2023-02-03T01:39:19.552Z,4.32
2023-02-03T01:41:46.434Z,4.38
2023-02-03T01:44:38.458Z,4.30
2023-02-03T01:47:13.406Z,4.00
2023-02-03T01:49:44.959Z,4.80
2023-02-03T01:52:11.872Z,4.60
2023-02-03T01:54:43.788Z,4.90
2023-02-03T01:57:27.758Z,4.85
2023-02-03T01:59:57.684Z,4.97
2023-02-03T02:02:24.943Z,5.18
2023-02-03T02:05:13.776Z,5.43
2023-02-03T02:07:42.195Z,5.40
2023-02-03T02:10:09.665Z,5.30
2023-02-03T02:12:36.509Z,5.65
2023-02-03T02:15:04.120Z,5.40
2023-02-03T02:17:52.745Z,5.65
2023-02-03T02:20:38.411Z,6.45
2023-02-03T02:23:25.987Z,6.83
2023-02-03T02:25:55.735Z,9.85
2023-02-03T02:31:53.750Z,7.07
2023-02-03T02:34:33.576Z,8.80
2023-02-03T02:37:15.150Z,8.80
2023-02-03T02:46:46.735Z,10.55
2023-02-03T02:49:21.227Z,11.48
2023-02-03T02:54:42.289Z,12.90
2023-02-03T02:57:11.796Z,13.90
2023-02-03T02:59:38.653Z,13.00
2023-02-03T03:02:05.471Z,13.10
2023-02-03T03:07:27.788Z,14.43
2023-02-03T03:10:02.924Z,14.32
2023-02-03T03:12:34.792Z,14.48
2023-02-03T03:21:02.742Z,14.88
2023-02-03T03:23:35.075Z,14.48
2023-02-03T03:26:07.503Z,14.30
2023-02-03T03:31:36.521Z,15.93
2023-02-03T03:37:19.187Z,16.27
2023-02-03T03:39:56.414Z,16.65
2023-02-03T03:45:26.116Z,16.00
2023-02-03T03:47:58.830Z,15.70
2023-02-03T03:50:36.968Z,14.60
2023-02-03T03:55:54.338Z,15.20
2023-02-03T03:58:26.363Z,15.70
2023-02-03T04:00:56.757Z,14.60
2023-02-03T04:03:28.278Z,13.30
2023-02-03T04:05:55.056Z,12.82
2023-02-03T04:08:21.866Z,12.60
2023-02-03T04:10:48.633Z,12.23
2023-02-03T04:13:15.354Z,12.45
2023-02-03T04:15:42.230Z,12.05
2023-02-03T04:18:11.956Z,11.85
2023-02-03T04:20:38.755Z,11.75
2023-02-03T04:23:05.773Z,11.32
2023-02-03T04:25:32.521Z,10.88
2023-02-03T04:27:59.412Z,10.00
2023-02-03T04:30:26.820Z,10.05
2023-02-03T04:32:54.050Z,9.57
2023-02-03T04:38:07.489Z,8.75
2023-02-03T04:43:20.909Z,9.10
2023-02-03T04:45:47.700Z,10.50
2023-02-03T04:48:14.497Z,10.75
2023-02-03T04:50:41.282Z,10.20
2023-02-03T04:53:08.042Z,11.90
2023-02-03T04:55:34.889Z,11.25
2023-02-03T04:58:01.980Z,12.38
2023-02-03T05:00:29.712Z,11.73
2023-02-03T05:02:56.803Z,10.90
2023-02-03T05:05:23.922Z,11.00
2023-02-03T05:07:50.742Z,13.80
2023-02-03T05:10:17.524Z,10.80
2023-02-03T05:12:44.280Z,11.43
2023-02-03T05:15:11.057Z,10.18
2023-02-03T05:17:37.834Z,8.70
2023-02-03T05:20:05.026Z,9.10
2023-02-03T05:22:31.811Z,9.50
2023-02-03T05:27:45.320Z,10.37
2023-02-03T05:32:59.215Z,8.75
2023-02-03T05:38:12.662Z,7.07
2023-02-03T05:40:39.527Z,7.20
2023-02-03T05:43:06.293Z,7.25
2023-02-03T05:45:33.131Z,6.40
2023-02-03T05:47:59.974Z,5.40
2023-02-03T05:50:26.975Z,6.00
2023-02-03T05:52:54.009Z,6.10
2023-02-03T05:55:20.750Z,4.90
2023-02-03T05:57:47.516Z,4.90
2023-02-03T06:00:14.703Z,5.00
2023-02-03T06:02:41.470Z,3.95
2023-02-03T06:05:09.030Z,3.93
2023-02-03T06:07:35.994Z,3.75
2023-02-03T06:10:03.173Z,3.30
2023-02-03T06:12:29.925Z,3.10
2023-02-03T06:14:56.753Z,3.10
2023-02-03T06:17:23.517Z,3.00
2023-02-03T06:19:50.287Z,2.80
2023-02-03T06:22:17.035Z,2.70
2023-02-03T06:24:43.826Z,2.80
2023-02-03T06:29:57.419Z,2.50
2023-02-03T06:35:10.941Z,2.70
2023-02-03T06:37:37.718Z,3.45
2023-02-03T06:40:05.039Z,2.03
2023-02-03T06:42:31.896Z,2.80
2023-02-03T06:44:58.705Z,8.10
2023-02-03T06:47:29.020Z,2.30
2023-02-03T06:49:55.776Z,2.90
2023-02-03T06:52:22.634Z,2.45
2023-02-03T06:54:49.349Z,1.80
2023-02-03T06:57:16.105Z,2.00
2023-02-03T06:59:42.865Z,2.10
2023-02-03T07:02:11.764Z,2.10
2023-02-03T07:04:38.557Z,2.28
2023-02-03T07:07:05.737Z,2.20
2023-02-03T07:09:32.596Z,3.08
2023-02-03T07:11:59.341Z,2.70
2023-02-03T07:14:26.130Z,2.50
2023-02-03T07:16:52.932Z,2.60
2023-02-03T07:19:19.749Z,2.80
2023-02-03T07:19:55.111Z,0
2023-02-03T07:21:46.533Z,2.85
2023-02-03T07:26:59.992Z,3.20
2023-02-03T07:32:13.940Z,3.20
2023-02-03T07:34:40.810Z,3.20
2023-02-03T07:37:07.612Z,3.40
2023-02-03T07:39:34.370Z,2.95
2023-02-03T07:42:01.148Z,3.37
2023-02-03T07:44:27.884Z,2.72
2023-02-03T07:46:54.736Z,2.70
2023-02-03T07:49:21.568Z,2.80
2023-02-03T07:51:48.325Z,2.70
2023-02-03T07:54:15.056Z,2.60
2023-02-03T07:56:42.983Z,2.47
2023-02-03T07:59:09.772Z,2.58
2023-02-03T08:01:36.604Z,2.30
2023-02-03T08:04:03.414Z,2.20
2023-02-03T08:09:16.946Z,2.10
2023-02-03T08:14:30.441Z,1.50
2023-02-03T08:16:57.480Z,1.30
2023-02-03T08:19:24.327Z,1.60
2023-02-03T08:21:51.435Z,1.60
2023-02-03T08:24:18.203Z,2.08
2023-02-03T08:26:45.001Z,1.70
2023-02-03T08:29:11.774Z,1.70
2023-02-03T08:31:38.634Z,1.67
2023-02-03T08:34:05.464Z,1.80
2023-02-03T08:36:32.234Z,2.37
2023-02-03T08:38:58.986Z,2.28
2023-02-03T08:41:25.779Z,2.90
2023-02-03T08:43:52.524Z,2.90
2023-02-03T08:46:19.483Z,2.70
2023-02-03T08:51:32.911Z,3.85
2023-02-03T08:56:46.489Z,4.10
2023-02-03T08:59:13.620Z,3.92
2023-02-03T09:01:40.763Z,4.20
2023-02-03T09:04:08.244Z,4.80
2023-02-03T09:06:36.426Z,4.90
2023-02-03T09:09:04.102Z,4.40
2023-02-03T09:11:31.124Z,4.40
2023-02-03T09:13:58.068Z,5.20
2023-02-03T09:16:25.713Z,6.43
2023-02-03T09:18:52.493Z,4.60
2023-02-03T09:21:34.734Z,4.90
2023-02-03T09:24:06.093Z,4.70
2023-02-03T09:26:32.869Z,4.50
2023-02-03T09:28:59.606Z,5.10
2023-02-03T09:34:13.234Z,5.30
2023-02-03T09:39:26.694Z,5.40
2023-02-03T09:41:14.169Z,0
2023-02-03T09:42:08.831Z,5.88
2023-02-03T09:44:44.303Z,6.13
2023-02-03T09:47:12.813Z,5.70
2023-02-03T09:52:37.223Z,6.30
2023-02-03T09:55:36.935Z,6.20
2023-02-03T09:58:16.585Z,6.73
2023-02-03T10:00:47.496Z,6.93
2023-02-03T10:03:36.678Z,7.22
2023-02-03T10:06:06.169Z,7.00
2023-02-03T10:08:51.009Z,6.65
2023-02-03T10:12:11.844Z,6.60
2023-02-03T10:14:46.489Z,6.82
2023-02-03T10:17:36.641Z,6.95
2023-02-03T10:20:13.529Z,9.15
2023-02-03T10:22:54.092Z,7.45
2023-02-03T10:25:29.558Z,7.63
2023-02-03T10:28:01.521Z,8.60
2023-02-03T10:30:34.114Z,8.40
2023-02-03T10:33:13.512Z,8.20
2023-02-03T10:36:03.606Z,8.95
2023-02-03T10:38:43.481Z,9.00
2023-02-03T10:41:10.675Z,8.10
2023-02-03T10:43:37.481Z,7.82
2023-02-03T10:46:04.429Z,7.50
2023-02-03T10:48:31.250Z,8.10
2023-02-03T10:50:58.605Z,8.30
2023-02-03T10:53:26.849Z,8.02
2023-02-03T10:56:05.168Z,8.25
2023-02-03T11:01:23.904Z,7.60
2023-02-03T11:04:01.023Z,8.55
2023-02-03T11:06:28.219Z,8.30
2023-02-03T11:08:55.719Z,7.97
2023-02-03T11:11:24.541Z,7.20
2023-02-03T11:14:03.442Z,6.50
2023-02-03T11:16:34.178Z,6.35
2023-02-03T11:19:21.619Z,5.93
2023-02-03T11:21:52.171Z,6.00
2023-02-03T11:27:20.837Z,5.53
2023-02-03T11:29:51.283Z,5.90
2023-02-03T11:32:23.289Z,5.40
2023-02-03T11:34:58.186Z,4.73
2023-02-03T11:38:01.397Z,3.83
2023-02-03T11:40:32.135Z,3.85
2023-02-03T11:43:14.326Z,4.03
2023-02-03T11:45:44.885Z,3.83
2023-02-03T11:48:29.384Z,4.20
2023-02-03T11:54:53.733Z,5.87
2023-02-03T12:04:14.779Z,7.30
2023-02-03T12:10:06.242Z,7.10
2023-02-03T12:12:59.720Z,7.70
2023-02-03T12:21:46.977Z,6.97
2023-02-03T12:24:38.032Z,7.90
2023-02-03T12:30:20.036Z,7.72
2023-02-03T12:36:17.897Z,8.32
2023-02-03T12:39:10.897Z,7.20
2023-02-03T12:41:46.363Z,7.78
2023-02-03T12:44:40.149Z,8.10
2023-02-03T12:47:18.822Z,7.07
2023-02-03T12:52:44.012Z,7.30
2023-02-03T12:55:42.952Z,7.40
2023-02-03T12:58:34.546Z,7.63
2023-02-03T13:01:41.401Z,7.82
2023-02-03T13:04:28.519Z,8.05
2023-02-03T13:07:11.536Z,7.60
2023-02-03T13:12:28.602Z,6.75
2023-02-03T13:18:13.602Z,6.53
2023-02-03T13:20:40.380Z,7.83
2023-02-03T13:23:12.369Z,7.72
2023-02-03T13:26:01.424Z,7.22
2023-02-03T13:28:47.038Z,7.97
2023-02-03T13:31:38.443Z,7.38
2023-02-03T13:34:50.110Z,7.37
2023-02-03T13:37:37.700Z,7.03
2023-02-03T13:40:19.529Z,6.80
2023-02-03T13:42:55.539Z,8.40
2023-02-03T13:45:30.899Z,6.90
2023-02-03T13:48:15.035Z,6.85
2023-02-03T13:50:42.667Z,7.75
2023-02-03T13:53:24.554Z,7.65
2023-02-03T13:56:31.063Z,7.60
2023-02-03T13:59:06.167Z,7.60
2023-02-03T14:01:40.346Z,7.03
2023-02-03T14:04:28.459Z,7.53
2023-02-03T14:07:01.123Z,7.32
2023-02-03T14:12:17.598Z,8.00
2023-02-03T14:17:35.252Z,7.32
2023-02-03T14:20:25.235Z,6.60
2023-02-03T14:23:07.788Z,7.30
2023-02-03T14:25:43.900Z,7.53
2023-02-03T14:28:17.871Z,8.10
2023-02-03T14:31:03.907Z,7.75
2023-02-03T14:33:46.004Z,7.37
2023-02-03T14:36:33.744Z,7.85
2023-02-03T14:39:04.088Z,8.73
2023-02-03T14:41:39.424Z,7.60
2023-02-03T14:44:45.393Z,8.20
2023-02-03T14:47:23.343Z,8.00
2023-02-03T14:50:19.871Z,7.50
2023-02-03T14:53:24.804Z,7.13
2023-02-03T14:59:02.734Z,8.05
2023-02-03T15:01:35.680Z,9.35
2023-02-03T15:04:11.704Z,6.32
2023-02-03T15:09:39.517Z,7.90
2023-02-03T15:12:23.164Z,7.32
2023-02-03T15:14:50.237Z,7.53
2023-02-03T15:17:24.257Z,7.07
2023-02-03T15:19:51.633Z,7.25
2023-02-03T15:22:30.294Z,8.00
2023-02-03T15:25:01.425Z,6.80
2023-02-03T15:27:30.158Z,7.78
2023-02-03T15:32:32.613Z,7.07
2023-02-03T15:35:02.051Z,7.10
2023-02-03T15:37:42.892Z,7.72
2023-02-03T15:40:14.888Z,8.00
2023-02-03T15:43:04.845Z,7.10
2023-02-03T15:45:42.372Z,7.70
2023-02-03T15:48:30.266Z,7.73
2023-02-03T15:51:17.512Z,7.18
2023-02-03T15:53:57.995Z,7.43
2023-02-03T15:56:33.645Z,7.70
2023-02-03T15:59:00.477Z,7.05
2023-02-03T16:01:27.549Z,8.40
2023-02-03T16:06:47.713Z,7.28
2023-02-03T16:09:29.352Z,7.20
2023-02-03T16:12:12.653Z,7.95
2023-02-03T16:14:39.444Z,8.13
2023-02-03T16:17:06.535Z,7.45
2023-02-03T16:19:33.451Z,8.10
2023-02-03T16:22:00.319Z,7.65
2023-02-03T16:24:32.934Z,7.47
2023-02-03T16:27:27.977Z,7.70
2023-02-03T16:30:06.855Z,8.70
2023-02-03T16:32:33.616Z,7.68
2023-02-03T16:35:00.353Z,7.93
2023-02-03T16:37:27.113Z,7.18
2023-02-03T16:39:53.886Z,6.90
2023-02-03T16:42:21.972Z,7.30
2023-02-03T16:44:48.708Z,6.97
2023-02-03T16:47:25.335Z,7.20
2023-02-03T16:49:52.117Z,7.45
2023-02-03T16:52:18.998Z,6.80
2023-02-03T16:54:45.759Z,7.10
2023-02-03T16:57:12.530Z,6.25
2023-02-03T16:59:39.279Z,6.40
2023-02-03T17:02:06.092Z,7.47
2023-02-03T17:07:00.036Z,7.25
2023-02-03T17:09:26.799Z,6.60
2023-02-03T17:14:40.175Z,6.50
2023-02-03T17:17:06.918Z,6.43
2023-02-03T17:19:33.682Z,6.10
2023-02-03T17:22:00.645Z,6.70
2023-02-03T17:24:27.408Z,6.40
2023-02-03T17:26:54.197Z,5.80
2023-02-03T17:29:21.125Z,5.80
2023-02-03T17:31:47.903Z,5.57
2023-02-03T17:34:14.672Z,5.30
2023-02-03T17:36:41.456Z,5.70
2023-02-03T17:55:20.290Z,5.07
2023-02-03T17:57:47.057Z,5.68
2023-02-03T18:00:14.200Z,5.38
2023-02-03T18:02:41.011Z,5.72
2023-02-03T18:05:08.023Z,6.10
2023-02-03T18:07:34.863Z,5.75
2023-02-03T18:10:01.775Z,6.05
2023-02-03T18:12:28.566Z,5.95
2023-02-03T18:14:56.668Z,7.30
2023-02-03T18:17:24.273Z,7.10
2023-02-03T18:19:55.810Z,6.80
2023-02-03T18:22:23.190Z,6.68
2023-02-03T18:24:50.041Z,7.07
2023-02-03T18:27:17.269Z,6.90
2023-02-03T18:29:45.899Z,6.53
2023-02-03T18:32:14.699Z,7.22
2023-02-03T18:34:42.086Z,6.85
2023-02-03T18:37:08.920Z,5.95
2023-02-03T18:39:35.775Z,6.05
2023-02-03T18:42:03.270Z,6.73
2023-02-03T18:44:30.199Z,6.50
2023-02-03T18:46:57.055Z,6.18
2023-02-03T18:49:23.857Z,7.00
2023-02-03T18:51:50.666Z,6.25
2023-02-03T18:54:17.468Z,5.90
2023-02-03T18:56:44.271Z,5.70
2023-02-03T19:01:39.061Z,5.13
2023-02-03T19:04:06.034Z,5.80
2023-02-03T19:09:21.060Z,5.47
2023-02-03T19:14:35.667Z,5.85
2023-02-03T19:19:50.261Z,4.83
2023-02-03T19:22:17.104Z,5.20
2023-02-03T19:24:43.847Z,4.65
2023-02-03T19:27:11.145Z,2.60
2023-02-03T19:29:38.001Z,1.50
2023-02-03T19:32:05.574Z,1.10
2023-02-03T19:34:32.384Z,1.00
2023-02-03T19:36:59.286Z,1.40
2023-02-03T19:39:26.045Z,1.60
2023-02-03T19:41:52.780Z,1.50
2023-02-03T19:44:19.542Z,1.90
2023-02-03T19:49:33.007Z,2.20
2023-02-03T19:54:46.522Z,1.70
2023-02-03T19:57:13.309Z,1.50
2023-02-03T19:59:40.044Z,2.20
2023-02-03T20:02:13.970Z,1.70
2023-02-03T20:07:28.634Z,1.30
2023-02-03T20:12:42.233Z,1.00
2023-02-03T20:15:09.105Z,1.20
2023-02-03T20:17:35.894Z,1.10
2023-02-03T20:20:02.687Z,1.33
2023-02-03T20:22:29.424Z,1.27
2023-02-03T20:24:56.190Z,2.13
2023-02-03T20:27:22.967Z,1.20
2023-02-03T20:29:49.790Z,1.13
2023-02-03T20:32:16.544Z,1.10
2023-02-03T20:34:43.293Z,1.10
2023-02-03T20:37:10.029Z,1.00
2023-02-03T20:42:23.514Z,1.05
2023-02-03T20:47:18.238Z,0.80
2023-02-03T20:49:45.842Z,0.93
2023-02-03T20:52:21.475Z,1.00
2023-02-03T20:54:48.285Z,0.80
2023-02-03T20:57:18.414Z,0.80
2023-02-03T21:02:34.356Z,1.05
2023-02-03T21:05:17.353Z,1.00
2023-02-03T21:07:44.269Z,0.80
2023-02-03T21:10:20.014Z,0.90
2023-02-03T21:12:47.643Z,0.80
2023-02-03T21:18:55.908Z,1.00
2023-02-03T21:21:36.221Z,1.50
2023-02-03T21:24:32.074Z,1.90
2023-02-03T21:27:00.709Z,1.00
2023-02-03T21:29:33.264Z,1.02
2023-02-03T21:32:01.604Z,0.90
2023-02-03T21:34:28.402Z,0.95
2023-02-03T21:36:56.771Z,1.10
2023-02-03T21:39:29.851Z,1.00
2023-02-03T21:44:47.279Z,1.20
2023-02-03T21:47:18.478Z,1.30
2023-02-03T21:49:45.255Z,1.13
2023-02-03T21:52:15.367Z,1.10
2023-02-03T21:52:32.494Z,0
2023-02-03T21:54:43.941Z,1.30
2023-02-03T21:57:15.485Z,1.50
2023-02-03T21:59:42.634Z,1.48
2023-02-03T22:02:28.423Z,1.70
2023-02-03T22:04:56.697Z,1.63
2023-02-03T22:07:23.566Z,1.60
2023-02-03T22:09:50.331Z,1.80
2023-02-03T22:12:17.151Z,2.00
2023-02-03T22:14:43.984Z,2.13
2023-02-03T22:19:59.239Z,2.20
2023-02-03T22:22:26.251Z,2.60
2023-02-03T22:24:52.977Z,2.80
2023-02-03T22:27:19.715Z,3.00
2023-02-03T22:29:46.459Z,3.00
2023-02-03T22:32:13.221Z,2.70
2023-02-03T22:34:39.967Z,2.80
2023-02-03T22:37:06.999Z,2.60
2023-02-03T22:42:21.161Z,2.40
2023-02-03T22:44:48.845Z,2.20
2023-02-03T22:45:05.036Z,0
2023-02-03T22:50:05.154Z,3.30
2023-02-03T22:52:32.745Z,3.80
2023-02-03T22:57:46.788Z,2.10
2023-02-03T23:03:04.746Z,2.30
2023-02-03T23:08:18.198Z,1.87
2023-02-03T23:10:44.999Z,2.20
2023-02-03T23:13:11.902Z,1.88
2023-02-03T23:15:38.722Z,1.85
2023-02-03T23:18:05.533Z,1.75
2023-02-03T23:20:33.194Z,1.90
2023-02-03T23:23:00.452Z,2.20
2023-02-03T23:25:27.261Z,2.10
2023-02-03T23:27:54.211Z,2.07
2023-02-03T23:30:21.066Z,2.00
2023-02-03T23:32:47.828Z,1.77
2023-02-03T23:38:01.278Z,1.98
2023-02-03T23:43:15.125Z,1.57
2023-02-03T23:45:42.254Z,1.40
2023-02-03T23:48:09.028Z,1.50
2023-02-03T23:50:35.806Z,1.30
2023-02-03T23:53:02.610Z,1.20
2023-02-03T23:55:29.480Z,1.10
2023-02-03T23:57:56.214Z,1.15
